Barbados Meteorological Services
Auto gathered TAF list
Powered by Apparatus software
For Flight VEC321
Contact Number 1-(246)-535-0021/2/3/4/5/6
WEB: http://www.barbadosweather.org

**********************************************

2018/08/18 18:59
TAF TVSA 181700Z 1818/1918 06015KT 9999 SCT018
TEMPO 1818/1824 5000 TSRA SHRA SCT012CB BKN014


**********************************************
2018/08/18 18:23
TAF TTPP 181600Z 1818/1918 12010KT 9999 SCT018
TEMPO 1818/1822 5000 SHRA FEW010CB BKN018 PROB30
TEMPO 1818/1822 2000 TSRA
BECMG 1900/1902 00000KT FEW016 PROB40
TEMPO 1908/1914 7000 SHRA SCT015
BECMG 1912/1914 10015KT FEW022


**********************************************
2018/08/18 18:21
TAF TTCP 181600Z 1818/1918 12010KT 9999 FEW018
BECMG 1900/1902 00000KT FEW016 PROB30
TEMPO 1908/1914 7000 SHRA SCT015
BECMG 1912/1914 10015KT FEW022


**********************************************
2018/08/18 20:45
TAF TNCM 181934Z 1820/1918 10009KT P6SM FEW022
FM190200 09009KT P6SM VCSH SCT018
FM191300 11011KT P6SM FEW022


**********************************************
2018/08/18 18:09
TAF TLPL 181700Z 1818/1918 10018KT 9999 SCT023
TEMPO 1818/1906 SHRA FEW018CB BKN020 PROB30
TEMPO 1818/1824 3000 TSRA SCT015CB BKN018 BKN038


**********************************************
2018/08/18 18:09
TAF TAF TLPC 181700Z 1818/1918 11010G20KT 9999 SCT023
TEMPO 1818/1906 SHRA FEW018CB BKN020 PROB30
TEMPO 1818/1824 3000 TSRA SCT015CB BKN018 BKN038


**********************************************
2018/08/18 20:57
TAF TJSJ 181941Z 1820/1918 07015KT P6SM VCSH FEW028 SCT060 SCT110
FM182300 10008KT P6SM FEW028 FEW050
FM190400 11003KT P6SM VCSH SCT026
FM191300 08013KT P6SM FEW028
FM191500 07016KT P6SM SCT030


**********************************************
2018/08/18 18:09
TAF TAF TGPY 181600Z 1818/1918 14010KT 9999 FEW015CB SCT019 PROB30
TEMPO 1904/1910 5000 SHRA FEW012CB BKN019 BKN035


**********************************************
2018/08/18 18:13
TAF TFFR 181700Z 1818/1918 13014KT 9999 SCT030 SCT060
TEMPO 1902/1918 3000 SHRA FEW011CB SCT020TCU PROB30
TEMPO 1915/1918 1200 -TSRA SCT010CB BKN015


**********************************************
2018/08/18 18:15
TAF TAF TFFF 181700Z 1818/1918 10015KT 9999 SCT030 BKN040
TEMPO 1818/1915 3000 SHRA FEW013CB BKN015 PROB40
TEMPO 1818/1822 VRB15G30KT 1000 TSRA SCT011CB BKN013 PROB30
TEMPO 1903/1909 VRB15G25KT 1000 TSRA SCT011CB BKN013


**********************************************
2018/08/18 18:59
TAF TDPD 181700Z 1818/1918 12012KT 9999 SCT018 PROB40
TEMPO 1821/1909 5000 TSRA SHRA SCT012CB BKN014


**********************************************
2018/08/18 18:59
TAF TBPB 181700Z 1818/1918 10015KT 9999 SCT018 PROB40
TEMPO 1818/1824 SHRA BKN015 FEW016CB


**********************************************
2018/08/18 18:20
TAF TAPA 181700Z 1818/1918 12012KT 9999 SCT022


**********************************************
2018/08/18 12:56
TAF SYCJ 181100Z 1812/1912 07008KT 9999 BKN018 SCT038 PROB 30
TEMPO 1815/1819 5000 TSRA FEW015CB BKN016
BECMG 1822/1900 05006KT 9999 SCT016


**********************************************
2018/08/18 18:20
TAF SVMI 181600Z 1818/1918 31005KT 9999 FEW016 TX33/18Z TN25/07Z
TEMPO 1818/1822 VRB08KT 9000 DZ SCT016 BKN100


**********************************************
2018/08/18 18:21
TAF TAF SOCA 181600Z 1818/1918 10012KT 9999 SCT030 PROB30
TEMPO 1818/1820 3000 SHRA FEW014TCU
BECMG 1821/1823 VRB03KT PROB40
TEMPO 1900/1909 3000 SHRA SCT012TCU
FM191300 10010KT 9999 SCT020


**********************************************
2018/08/18 18:51
TAF SMJP 181600Z 1818/1918 11010KT 9999 SCT030 TX34/1819Z TN22/1910Z
FM182200 09005KT CAVOK
BECMG 1912/1914 10010KT 9999 SCT018


**********************************************
2018/08/18 18:09
TAF MYNN 181700Z 1818/1918 09012KT 9999 VCSH SCT018 BKN200


**********************************************
2018/08/18 18:29
TAF MKJP 181715Z 1818/1918 14020G33KT 9999 SCT020 FEW022CB
BECMG 1900/1902 13015KT FEW020 FEW022CB
BECMG 1904/1906 35007KT
BECMG 1914/1916 13020KT


**********************************************